createdAt,value
2018-07-14T00:00:40.200Z,11.07
2018-07-14T00:03:09.987Z,12.60
2018-07-14T00:05:39.311Z,13.17
2018-07-14T00:08:08.736Z,14.13
2018-07-14T00:10:38.348Z,12.27
2018-07-14T00:13:07.743Z,13.13
2018-07-14T00:15:36.986Z,12.97
2018-07-14T00:18:06.584Z,12.73
2018-07-14T00:20:35.836Z,12.10
2018-07-14T00:23:05.123Z,12.63
2018-07-14T00:25:39.685Z,12.20
2018-07-14T00:28:09.120Z,13.03
2018-07-14T00:30:40.499Z,13.20
2018-07-14T00:33:10.296Z,13.77
2018-07-14T00:35:40.255Z,13.87
2018-07-14T00:38:09.532Z,15.50
2018-07-14T00:40:39.346Z,13.03
2018-07-14T00:43:08.729Z,13.97
2018-07-14T00:45:38.030Z,14.27
2018-07-14T00:48:07.484Z,14.07
2018-07-14T00:50:36.743Z,14.77
2018-07-14T00:53:06.914Z,15.40
2018-07-14T00:55:36.386Z,14.23
2018-07-14T00:58:05.873Z,14.20
2018-07-14T01:00:35.350Z,13.97
2018-07-14T01:03:04.630Z,14.50
2018-07-14T01:05:34.002Z,14.97
2018-07-14T01:08:03.224Z,13.80
2018-07-14T01:10:32.507Z,15.33
2018-07-14T01:13:01.775Z,14.07
2018-07-14T01:15:31.115Z,14.27
2018-07-14T01:18:00.644Z,14.00
2018-07-14T01:20:33.760Z,13.77
2018-07-14T01:23:03.450Z,16.23
2018-07-14T01:25:32.731Z,15.93
2018-07-14T01:28:02.068Z,15.20
2018-07-14T01:30:31.800Z,15.13
2018-07-14T01:33:01.120Z,15.90
2018-07-14T01:35:30.391Z,15.53
2018-07-14T01:37:59.726Z,15.27
2018-07-14T01:40:29.014Z,15.03
2018-07-14T01:42:58.434Z,16.73
2018-07-14T01:45:28.587Z,14.90
2018-07-14T01:47:58.342Z,14.87
2018-07-14T01:50:27.907Z,14.73
2018-07-14T01:52:57.206Z,15.47
2018-07-14T01:55:26.463Z,20.00
2018-07-14T01:57:55.724Z,14.47
2018-07-14T02:00:25.083Z,14.83
2018-07-14T02:02:54.692Z,20.13
2018-07-14T02:05:24.208Z,14.70
2018-07-14T02:07:53.508Z,15.60
2018-07-14T02:10:24.866Z,18.37
2018-07-14T02:12:54.150Z,14.60
2018-07-14T02:15:23.372Z,14.47
2018-07-14T02:17:52.630Z,13.60
2018-07-14T02:20:21.919Z,15.73
2018-07-14T02:22:51.618Z,15.30
2018-07-14T02:25:21.279Z,15.33
2018-07-14T02:27:50.583Z,13.07
2018-07-14T02:30:19.884Z,16.33
2018-07-14T02:32:49.375Z,13.57
2018-07-14T02:35:18.701Z,14.00
2018-07-14T02:37:48.004Z,13.47
2018-07-14T02:40:17.320Z,14.23
2018-07-14T02:42:46.684Z,13.50
2018-07-14T02:45:15.964Z,13.17
2018-07-14T02:47:45.321Z,17.90
2018-07-14T02:50:14.758Z,14.37
2018-07-14T02:52:44.109Z,14.97
2018-07-14T02:55:13.645Z,12.70
2018-07-14T02:57:42.974Z,14.33
2018-07-14T03:00:12.274Z,12.53
2018-07-14T03:02:41.547Z,13.07
2018-07-14T03:05:10.913Z,17.80
2018-07-14T03:07:40.214Z,14.77
2018-07-14T03:10:09.519Z,14.80
2018-07-14T03:12:38.960Z,13.10
2018-07-14T03:15:08.442Z,13.50
2018-07-14T03:17:38.159Z,15.87
2018-07-14T03:20:07.593Z,14.30
2018-07-14T03:22:36.877Z,14.00
2018-07-14T03:25:06.226Z,14.93
2018-07-14T03:27:35.491Z,13.17
2018-07-14T03:30:04.880Z,14.53
2018-07-14T03:32:34.312Z,16.27
2018-07-14T03:35:03.970Z,14.47
2018-07-14T03:37:33.258Z,14.47
2018-07-14T03:40:02.569Z,16.33
2018-07-14T03:42:31.938Z,18.30
2018-07-14T03:45:01.208Z,15.50
2018-07-14T03:47:30.427Z,18.17
2018-07-14T03:50:07.405Z,16.50
2018-07-14T03:52:36.893Z,19.17
2018-07-14T03:55:07.215Z,16.33
2018-07-14T03:57:36.581Z,16.20
2018-07-14T04:00:06.575Z,16.83
2018-07-14T04:02:35.863Z,17.33
2018-07-14T04:05:05.390Z,15.57
2018-07-14T04:07:34.675Z,15.03
2018-07-14T04:10:03.971Z,16.67
2018-07-14T04:12:33.288Z,15.70
2018-07-14T04:15:02.563Z,17.43
2018-07-14T04:17:31.863Z,15.97
2018-07-14T04:20:01.929Z,16.50
2018-07-14T04:22:31.214Z,15.80
2018-07-14T04:25:00.491Z,16.10
2018-07-14T04:27:29.784Z,17.07
2018-07-14T04:29:59.070Z,17.27
2018-07-14T04:32:28.719Z,17.33
2018-07-14T04:34:57.958Z,19.07
2018-07-14T04:37:27.163Z,16.00
2018-07-14T04:39:56.463Z,18.40
2018-07-14T04:42:25.831Z,17.33
2018-07-14T04:44:55.056Z,16.97
2018-07-14T04:47:24.940Z,16.30
2018-07-14T04:49:54.552Z,15.83
2018-07-14T04:52:24.043Z,15.53
2018-07-14T04:54:53.484Z,14.67
2018-07-14T04:57:23.723Z,20.93
2018-07-14T04:59:53.383Z,15.43
2018-07-14T05:02:22.787Z,16.93
2018-07-14T05:04:52.090Z,14.60
2018-07-14T05:07:21.403Z,14.10
2018-07-14T05:09:50.695Z,14.93
2018-07-14T05:12:20.003Z,15.93
2018-07-14T05:14:49.244Z,15.47
2018-07-14T05:17:18.651Z,13.87
2018-07-14T05:19:48.030Z,12.93
2018-07-14T05:22:17.448Z,13.20
2018-07-14T05:24:46.781Z,16.10
2018-07-14T05:27:16.127Z,13.70
2018-07-14T05:29:45.425Z,15.73
2018-07-14T05:32:14.815Z,14.57
2018-07-14T05:34:44.123Z,12.10
2018-07-14T05:37:13.503Z,12.27
2018-07-14T05:39:42.758Z,11.67
2018-07-14T05:42:12.034Z,13.27
2018-07-14T05:44:41.338Z,12.93
2018-07-14T05:47:10.590Z,11.90
2018-07-14T05:49:39.960Z,16.10
2018-07-14T05:52:09.339Z,16.07
2018-07-14T05:54:38.558Z,12.37
2018-07-14T05:57:07.931Z,11.13
2018-07-14T05:59:37.266Z,12.30
2018-07-14T06:02:07.151Z,11.10
2018-07-14T06:04:36.422Z,11.40
2018-07-14T06:07:05.776Z,12.63
2018-07-14T06:09:35.043Z,11.47
2018-07-14T06:12:04.391Z,12.30
2018-07-14T06:14:33.726Z,11.30
2018-07-14T06:17:02.982Z,12.80
2018-07-14T06:19:32.323Z,10.77
2018-07-14T06:22:01.630Z,12.40
2018-07-14T06:24:30.935Z,11.50
2018-07-14T06:27:00.259Z,13.30
2018-07-14T06:29:29.512Z,9.83
2018-07-14T06:31:58.924Z,12.37
2018-07-14T06:34:28.123Z,11.10
2018-07-14T06:36:57.439Z,11.10
2018-07-14T06:39:26.862Z,12.10
2018-07-14T06:41:56.212Z,11.23
2018-07-14T06:44:25.525Z,10.73
2018-07-14T06:46:55.976Z,11.33
2018-07-14T06:49:25.275Z,11.13
2018-07-14T06:51:54.679Z,10.27
2018-07-14T06:54:23.970Z,8.20
2018-07-14T06:56:53.184Z,9.97
2018-07-14T06:59:22.474Z,9.37
2018-07-14T07:01:51.807Z,10.97
2018-07-14T07:04:21.118Z,8.13
2018-07-14T07:06:50.375Z,7.60
2018-07-14T07:09:19.668Z,8.50
2018-07-14T07:11:48.966Z,8.07
2018-07-14T07:14:18.267Z,8.03
2018-07-14T07:16:47.579Z,9.63
2018-07-14T07:19:16.872Z,8.47
2018-07-14T07:21:46.229Z,7.43
2018-07-14T07:24:15.477Z,7.87
2018-07-14T07:26:45.150Z,8.67
2018-07-14T07:29:14.435Z,9.60
2018-07-14T07:31:43.666Z,8.37
2018-07-14T07:34:12.943Z,8.90
2018-07-14T07:36:42.206Z,8.20
2018-07-14T07:39:11.535Z,7.23
2018-07-14T07:41:40.888Z,8.13
2018-07-14T07:44:10.146Z,8.03
2018-07-14T07:46:39.526Z,7.73
2018-07-14T07:49:08.858Z,8.57
2018-07-14T07:51:38.172Z,8.57
2018-07-14T07:54:07.611Z,7.27
2018-07-14T07:56:36.903Z,7.87
2018-07-14T07:59:06.175Z,7.20
2018-07-14T08:01:35.526Z,7.30
2018-07-14T08:04:04.813Z,9.87
2018-07-14T08:06:34.427Z,7.37
2018-07-14T08:09:04.852Z,9.27
2018-07-14T08:11:34.130Z,8.07
2018-07-14T08:14:03.471Z,8.47
2018-07-14T08:16:32.751Z,9.93
2018-07-14T08:19:02.028Z,7.47
2018-07-14T08:21:31.246Z,8.77
2018-07-14T08:24:00.587Z,7.43
2018-07-14T08:26:29.855Z,7.47
2018-07-14T08:28:59.168Z,8.60
2018-07-14T08:31:28.476Z,7.60
2018-07-14T08:33:57.770Z,9.83
2018-07-14T08:36:27.044Z,8.10
2018-07-14T08:38:56.398Z,6.93
2018-07-14T08:41:25.666Z,6.73
2018-07-14T08:43:54.983Z,7.23
2018-07-14T08:46:24.288Z,7.13
2018-07-14T08:48:53.656Z,6.87
2018-07-14T08:51:22.997Z,6.77
2018-07-14T08:53:52.702Z,7.00
2018-07-14T08:56:22.013Z,9.13
2018-07-14T08:58:51.342Z,7.33
2018-07-14T09:01:21.031Z,6.97
2018-07-14T09:03:50.297Z,7.37
2018-07-14T09:06:19.586Z,7.90
2018-07-14T09:08:49.192Z,7.53
2018-07-14T09:11:18.474Z,7.60
2018-07-14T09:13:47.886Z,10.23
2018-07-14T09:16:17.119Z,6.40
2018-07-14T09:18:46.343Z,8.23
2018-07-14T09:21:15.614Z,10.63
2018-07-14T09:23:44.935Z,7.23
2018-07-14T09:26:14.238Z,7.60
2018-07-14T09:28:43.795Z,7.83
2018-07-14T09:31:13.192Z,8.40
2018-07-14T09:33:42.599Z,7.73
2018-07-14T09:36:11.870Z,8.17
2018-07-14T09:38:41.168Z,6.50
2018-07-14T09:41:10.508Z,8.67
2018-07-14T09:43:39.791Z,9.07
2018-07-14T09:46:09.088Z,10.57
2018-07-14T09:48:38.314Z,9.43
2018-07-14T09:51:07.719Z,7.83
2018-07-14T09:53:36.978Z,8.10
2018-07-14T09:56:06.831Z,8.27
2018-07-14T09:58:36.111Z,7.70
2018-07-14T10:01:09.578Z,7.97
2018-07-14T10:03:40.394Z,9.57
2018-07-14T10:06:09.770Z,9.20
2018-07-14T10:08:39.043Z,7.87
2018-07-14T10:11:08.390Z,7.87
2018-07-14T10:13:37.640Z,8.50
2018-07-14T10:16:07.003Z,8.87
2018-07-14T10:18:36.416Z,9.33
2018-07-14T10:21:05.749Z,9.87
2018-07-14T10:23:35.151Z,8.70
2018-07-14T10:26:04.483Z,7.70
2018-07-14T10:28:33.803Z,8.60
2018-07-14T10:31:03.131Z,7.97
2018-07-14T10:33:32.405Z,7.10
2018-07-14T10:36:01.753Z,9.23
2018-07-14T10:38:31.216Z,7.90
2018-07-14T10:41:00.495Z,8.03
2018-07-14T10:43:29.836Z,7.40
2018-07-14T10:45:59.163Z,8.70
2018-07-14T10:48:28.555Z,7.53
2018-07-14T10:50:57.868Z,9.73
2018-07-14T10:53:27.203Z,7.27
2018-07-14T10:55:56.499Z,6.37
2018-07-14T10:58:25.799Z,7.73
2018-07-14T11:00:55.095Z,8.40
2018-07-14T11:03:24.378Z,9.90
2018-07-14T11:05:53.638Z,7.57
2018-07-14T11:08:22.996Z,8.23
2018-07-14T11:10:52.436Z,7.67
2018-07-14T11:13:21.817Z,9.17
2018-07-14T11:15:51.090Z,10.30
2018-07-14T11:18:20.443Z,8.10
2018-07-14T11:20:49.750Z,6.77
2018-07-14T11:23:19.438Z,8.20
2018-07-14T11:25:48.700Z,6.83
2018-07-14T11:28:17.955Z,8.80
2018-07-14T11:30:47.288Z,7.63
2018-07-14T11:33:16.577Z,7.53
2018-07-14T11:35:46.991Z,8.17
2018-07-14T11:38:16.355Z,9.23
2018-07-14T11:40:45.732Z,8.43
2018-07-14T11:43:15.075Z,6.97
2018-07-14T11:45:44.462Z,6.63
2018-07-14T11:48:13.800Z,7.77
2018-07-14T11:50:43.106Z,6.13
2018-07-14T11:53:12.807Z,7.33
2018-07-14T11:55:42.191Z,8.60
2018-07-14T11:58:11.507Z,9.17
2018-07-14T12:00:40.935Z,7.80
2018-07-14T12:03:10.307Z,5.67
2018-07-14T12:05:39.622Z,9.43
2018-07-14T12:08:09.050Z,8.77
2018-07-14T12:10:38.435Z,6.30
2018-07-14T12:13:07.734Z,5.90
2018-07-14T12:15:37.377Z,6.43
2018-07-14T12:18:06.649Z,6.13
2018-07-14T12:20:38.047Z,6.43
2018-07-14T12:23:07.491Z,7.07
2018-07-14T12:25:36.708Z,6.27
2018-07-14T12:28:06.029Z,6.53
2018-07-14T12:30:35.323Z,9.77
2018-07-14T12:33:04.663Z,7.10
2018-07-14T12:35:33.959Z,5.83
2018-07-14T12:38:03.276Z,6.20
2018-07-14T12:40:32.541Z,6.83
2018-07-14T12:43:01.912Z,5.73
2018-07-14T12:45:31.301Z,5.53
2018-07-14T12:48:00.623Z,4.70
2018-07-14T12:50:29.983Z,5.63
2018-07-14T12:52:59.274Z,5.87
2018-07-14T12:55:28.648Z,5.20
2018-07-14T12:57:58.042Z,5.53
2018-07-14T13:00:27.460Z,6.70
2018-07-14T13:02:56.927Z,4.83
2018-07-14T13:05:26.657Z,5.07
2018-07-14T13:07:56.486Z,6.93
2018-07-14T13:10:25.806Z,4.10
2018-07-14T13:12:55.104Z,4.10
2018-07-14T13:15:24.410Z,7.37
2018-07-14T13:17:53.710Z,6.37
2018-07-14T13:20:23.061Z,3.87
2018-07-14T13:22:52.428Z,4.10
2018-07-14T13:25:21.852Z,4.83
2018-07-14T13:27:51.534Z,4.67
2018-07-14T13:30:20.904Z,6.07
2018-07-14T13:32:50.150Z,5.87
2018-07-14T13:35:19.916Z,6.77
2018-07-14T13:37:49.163Z,4.83
2018-07-14T13:40:18.570Z,6.50
2018-07-14T13:42:47.926Z,4.53
2018-07-14T13:45:18.175Z,4.43
2018-07-14T13:47:49.615Z,4.40
2018-07-14T13:50:18.953Z,4.93
2018-07-14T13:52:48.242Z,5.67
2018-07-14T13:55:17.565Z,4.57
2018-07-14T13:57:47.022Z,5.27
2018-07-14T14:00:16.474Z,5.83
2018-07-14T14:02:45.884Z,6.20
2018-07-14T14:05:15.632Z,3.50
2018-07-14T14:07:44.923Z,4.30
2018-07-14T14:10:14.206Z,3.53
2018-07-14T14:12:43.586Z,3.07
2018-07-14T14:15:12.927Z,4.37
2018-07-14T14:17:42.258Z,4.53
2018-07-14T14:20:11.687Z,3.60
2018-07-14T14:22:41.913Z,5.77
2018-07-14T14:25:11.249Z,4.70
2018-07-14T14:27:40.616Z,3.60
2018-07-14T14:30:10.090Z,3.40
2018-07-14T14:32:39.423Z,4.07
2018-07-14T14:35:08.752Z,4.53
2018-07-14T14:37:38.074Z,4.03
2018-07-14T14:40:07.379Z,3.80
2018-07-14T14:42:36.688Z,3.70
2018-07-14T14:45:06.664Z,3.30
2018-07-14T14:47:36.019Z,5.87
2018-07-14T14:50:05.407Z,4.20
2018-07-14T14:52:34.873Z,4.03
2018-07-14T14:55:04.224Z,6.70
2018-07-14T14:57:33.627Z,4.80
2018-07-14T15:00:03.234Z,5.10
2018-07-14T15:02:32.637Z,4.30
2018-07-14T15:05:01.961Z,4.97
2018-07-14T15:07:31.291Z,3.80
2018-07-14T15:10:00.663Z,4.83
2018-07-14T15:12:30.059Z,3.40
2018-07-14T15:14:59.424Z,4.60
2018-07-14T15:17:28.802Z,4.07
2018-07-14T15:19:58.414Z,4.30
2018-07-14T15:22:27.689Z,2.83
2018-07-14T15:24:56.951Z,3.23
2018-07-14T15:27:26.323Z,5.03
2018-07-14T15:29:55.585Z,2.90
2018-07-14T15:32:25.347Z,3.33
2018-07-14T15:34:54.611Z,3.20
2018-07-14T15:37:23.966Z,3.23
2018-07-14T15:39:53.261Z,4.13
2018-07-14T15:42:22.675Z,3.00
2018-07-14T15:44:52.016Z,3.07
2018-07-14T15:47:21.319Z,2.90
2018-07-14T15:49:50.667Z,4.43
2018-07-14T15:52:19.944Z,5.00
2018-07-14T15:54:49.274Z,3.77
2018-07-14T15:57:18.560Z,4.40
2018-07-14T15:59:47.906Z,3.47
2018-07-14T16:02:17.206Z,3.83
2018-07-14T16:04:46.505Z,3.20
2018-07-14T16:07:15.822Z,2.60
2018-07-14T16:09:45.179Z,4.27
2018-07-14T16:12:14.519Z,5.90
2018-07-14T16:14:43.938Z,3.00
2018-07-14T16:17:13.295Z,3.40
2018-07-14T16:19:42.675Z,2.97
2018-07-14T16:22:12.074Z,2.83
2018-07-14T16:24:41.444Z,2.50
2018-07-14T16:27:10.621Z,2.13
2018-07-14T16:29:39.941Z,3.20
2018-07-14T16:32:09.216Z,2.33
2018-07-14T16:34:38.480Z,4.70
2018-07-14T16:37:07.785Z,2.20
2018-07-14T16:39:37.102Z,4.63
2018-07-14T16:42:06.437Z,2.43
2018-07-14T16:44:35.819Z,3.33
2018-07-14T16:47:05.132Z,1.90
2018-07-14T16:49:34.421Z,1.70
2018-07-14T16:52:04.172Z,2.43
2018-07-14T16:54:33.449Z,2.83
2018-07-14T16:57:02.750Z,3.17
2018-07-14T16:59:32.055Z,2.77
2018-07-14T17:02:01.338Z,2.97
2018-07-14T17:04:30.672Z,2.33
2018-07-14T17:06:59.919Z,2.10
2018-07-14T17:09:29.165Z,3.10
2018-07-14T17:11:58.459Z,3.87
2018-07-14T17:14:27.715Z,2.93
2018-07-14T17:16:56.975Z,2.40
2018-07-14T17:19:26.264Z,2.63
2018-07-14T17:21:55.587Z,4.80
2018-07-14T17:24:24.961Z,1.73
2018-07-14T17:26:54.347Z,3.53
2018-07-14T17:29:23.617Z,1.73
2018-07-14T17:31:52.863Z,2.63
2018-07-14T17:34:22.195Z,2.13
2018-07-14T17:36:51.822Z,2.47
2018-07-14T17:39:21.127Z,2.83
2018-07-14T17:41:50.633Z,3.20
2018-07-14T17:44:19.938Z,2.13
2018-07-14T17:46:50.448Z,1.93
2018-07-14T17:49:19.762Z,1.70
2018-07-14T17:51:49.119Z,1.63
2018-07-14T17:54:18.533Z,2.00
2018-07-14T17:56:47.905Z,3.67
2018-07-14T17:59:17.214Z,4.13
2018-07-14T18:01:46.457Z,2.23
2018-07-14T18:04:15.754Z,2.20
2018-07-14T18:06:45.108Z,2.33
2018-07-14T18:09:14.429Z,2.90
2018-07-14T18:11:43.790Z,2.57
2018-07-14T18:14:13.147Z,3.70
2018-07-14T18:16:42.451Z,5.83
2018-07-14T18:19:11.758Z,1.90
2018-07-14T18:21:41.075Z,2.20
2018-07-14T18:24:10.357Z,1.70
2018-07-14T18:26:40.035Z,1.73
2018-07-14T18:29:09.313Z,3.00
2018-07-14T18:31:38.739Z,4.27
2018-07-14T18:34:08.099Z,2.63
2018-07-14T18:36:42.839Z,1.60
2018-07-14T18:39:12.164Z,1.60
2018-07-14T18:41:41.470Z,2.10
2018-07-14T18:44:11.113Z,2.83
2018-07-14T18:46:41.264Z,1.33
2018-07-14T18:49:10.568Z,3.93
2018-07-14T18:51:39.943Z,3.13
2018-07-14T18:54:09.245Z,4.33
2018-07-14T18:56:38.522Z,1.63
2018-07-14T18:59:08.135Z,1.53
2018-07-14T19:01:37.416Z,2.70
2018-07-14T19:04:07.036Z,2.23
2018-07-14T19:06:36.372Z,2.07
2018-07-14T19:09:06.153Z,1.57
2018-07-14T19:11:35.496Z,1.73
2018-07-14T19:14:04.992Z,2.13
2018-07-14T19:16:35.196Z,2.27
2018-07-14T19:19:04.671Z,2.13
2018-07-14T19:21:34.039Z,1.30
2018-07-14T19:24:03.504Z,1.80
2018-07-14T19:26:32.910Z,1.50
2018-07-14T19:29:04.343Z,4.70
2018-07-14T19:31:33.658Z,2.00
2018-07-14T19:34:03.081Z,1.80
2018-07-14T19:36:32.782Z,3.53
2018-07-14T19:39:02.083Z,2.40
2018-07-14T19:41:31.335Z,1.77
2018-07-14T19:44:00.687Z,2.43
2018-07-14T19:46:29.958Z,3.13
2018-07-14T19:48:59.504Z,1.60
2018-07-14T19:51:28.812Z,2.07
2018-07-14T19:53:58.264Z,3.40
2018-07-14T19:56:28.024Z,1.63
2018-07-14T19:58:57.376Z,1.63
2018-07-14T20:01:26.712Z,1.50
2018-07-14T20:03:55.983Z,2.07
2018-07-14T20:06:25.299Z,3.30
2018-07-14T20:08:54.640Z,3.30
2018-07-14T20:11:24.068Z,2.37
2018-07-14T20:13:53.439Z,2.33
2018-07-14T20:16:22.884Z,2.27
2018-07-14T20:18:52.162Z,2.00
2018-07-14T20:21:21.459Z,2.13
2018-07-14T20:23:50.747Z,5.93
2018-07-14T20:26:20.134Z,2.20
2018-07-14T20:28:49.382Z,2.47
2018-07-14T20:31:18.676Z,2.10
2018-07-14T20:33:48.045Z,2.93
2018-07-14T20:36:17.375Z,2.27
2018-07-14T20:38:46.681Z,7.33
2018-07-14T20:41:16.007Z,1.73
2018-07-14T20:43:45.765Z,1.90
2018-07-14T20:46:15.047Z,3.33
2018-07-14T20:48:44.333Z,1.90
2018-07-14T20:51:13.704Z,2.07
2018-07-14T20:53:42.976Z,2.73
2018-07-14T20:56:12.240Z,2.77
2018-07-14T20:58:41.549Z,2.53
2018-07-14T21:01:10.881Z,2.93
2018-07-14T21:03:40.183Z,2.63
2018-07-14T21:06:09.642Z,3.10
2018-07-14T21:08:39.143Z,2.93
2018-07-14T21:11:08.904Z,2.73
2018-07-14T21:13:38.199Z,2.27
2018-07-14T21:16:07.499Z,2.07
2018-07-14T21:18:37.204Z,2.90
2018-07-14T21:21:06.790Z,2.03
2018-07-14T21:23:36.144Z,2.63
2018-07-14T21:26:05.586Z,2.97
2018-07-14T21:28:34.919Z,4.57
2018-07-14T21:31:04.197Z,5.90
2018-07-14T21:33:33.427Z,2.60
2018-07-14T21:36:02.748Z,2.23
2018-07-14T21:38:32.087Z,5.20
2018-07-14T21:41:01.331Z,2.17
2018-07-14T21:43:30.683Z,2.60
2018-07-14T21:45:59.979Z,3.60
2018-07-14T21:48:29.274Z,1.93
2018-07-14T21:50:58.939Z,2.60
2018-07-14T21:53:28.182Z,5.03
2018-07-14T21:55:57.476Z,2.33
2018-07-14T21:58:26.763Z,2.87
2018-07-14T22:01:05.673Z,2.77
2018-07-14T22:03:36.434Z,2.43
2018-07-14T22:06:06.169Z,4.27
2018-07-14T22:08:35.762Z,2.20
2018-07-14T22:11:05.288Z,4.13
2018-07-14T22:13:34.933Z,3.17
2018-07-14T22:16:04.234Z,2.33
2018-07-14T22:18:33.996Z,3.13
2018-07-14T22:21:03.575Z,3.90
2018-07-14T22:23:32.856Z,4.13
2018-07-14T22:26:02.271Z,4.43
2018-07-14T22:28:31.605Z,2.03
2018-07-14T22:31:01.308Z,6.53
2018-07-14T22:33:30.704Z,2.77
2018-07-14T22:35:59.943Z,2.97
2018-07-14T22:38:29.596Z,2.47
2018-07-14T22:40:58.896Z,3.33
2018-07-14T22:43:28.230Z,6.47
2018-07-14T22:45:57.855Z,2.07
2018-07-14T22:48:27.199Z,4.20
2018-07-14T22:50:56.479Z,2.87
2018-07-14T22:53:25.870Z,3.40
2018-07-14T22:55:55.203Z,12.93
2018-07-14T22:58:24.540Z,3.43
2018-07-14T23:00:54.148Z,4.30
2018-07-14T23:03:23.607Z,2.40
2018-07-14T23:05:52.933Z,2.43
2018-07-14T23:08:22.332Z,1.90
2018-07-14T23:10:51.630Z,4.33
2018-07-14T23:13:20.907Z,2.10
2018-07-14T23:15:50.501Z,2.63
2018-07-14T23:18:19.956Z,2.97
2018-07-14T23:20:49.460Z,3.67
2018-07-14T23:23:18.775Z,2.40
2018-07-14T23:25:48.094Z,4.37
2018-07-14T23:28:17.624Z,2.07
2018-07-14T23:30:47.644Z,4.00
2018-07-14T23:33:17.126Z,3.97
2018-07-14T23:35:46.492Z,4.17
2018-07-14T23:38:15.791Z,3.67
2018-07-14T23:40:45.616Z,2.20
2018-07-14T23:43:14.905Z,3.53
2018-07-14T23:45:44.270Z,4.20
2018-07-14T23:48:13.568Z,3.63
2018-07-14T23:50:43.091Z,3.20
2018-07-14T23:53:12.585Z,2.73
2018-07-14T23:55:42.027Z,2.70
2018-07-14T23:58:11.320Z,4.13
